Time;durP1;ratioP1;P1;durP2;ratioP2;P2;SDS_P1;SDS_P2;PMS_P1;PMS_P2;Temp;Humidity;BMP_temperature;BMP_pressure;BME280_temperature;BME280_humidity;BME280_pressure;Samples;Min_cycle;Max_cycle;Signal;HPM_P1;HPM_P2
2023/10/24 00:00:55;;;;;;;8.18;7.05;;;12.80;99.90;;;;;;4992894;28;20022;-49
2023/10/24 00:03:21;;;;;;;12.32;7.70;;;12.70;99.90;;;;;;4992931;28;20018;-54
2023/10/24 00:05:48;;;;;;;8.10;6.43;;;12.70;99.90;;;;;;4991791;28;20029;-50
2023/10/24 00:08:14;;;;;;;7.70;6.78;;;12.70;99.90;;;;;;4992672;28;20043;-52
2023/10/24 00:10:39;;;;;;;10.65;7.00;;;12.80;99.90;;;;;;4992828;28;20119;-46
2023/10/24 00:13:05;;;;;;;10.50;6.47;;;12.80;99.90;;;;;;4993213;28;20030;-48
2023/10/24 00:15:30;;;;;;;8.57;6.80;;;12.80;99.90;;;;;;4992552;28;20026;-50
2023/10/24 00:17:56;;;;;;;8.90;6.50;;;12.80;99.90;;;;;;4992601;28;20041;-52
2023/10/24 00:20:21;;;;;;;16.58;7.57;;;12.80;99.90;;;;;;4992861;28;20513;-49
2023/10/24 00:22:47;;;;;;;13.15;6.70;;;12.80;99.90;;;;;;4992254;28;20027;-50
2023/10/24 00:25:13;;;;;;;13.05;7.57;;;12.80;99.90;;;;;;4992611;28;20041;-50
2023/10/24 00:27:39;;;;;;;10.48;6.82;;;12.80;99.90;;;;;;4991012;28;20401;-50
2023/10/24 00:30:06;;;;;;;7.43;6.57;;;12.70;99.90;;;;;;4992479;28;20033;-53
2023/10/24 00:32:32;;;;;;;11.48;6.13;;;12.70;99.90;;;;;;4992477;28;20034;-48
2023/10/24 00:34:57;;;;;;;15.07;7.10;;;12.70;99.90;;;;;;4992170;28;20033;-53
2023/10/24 00:37:23;;;;;;;13.85;8.48;;;12.60;99.90;;;;;;4990844;28;20029;-48
2023/10/24 00:39:48;;;;;;;17.80;11.70;;;12.70;99.90;;;;;;4992341;28;20497;-53
2023/10/24 00:42:14;;;;;;;13.73;10.70;;;12.60;99.90;;;;;;4992082;28;20128;-54
2023/10/24 00:44:39;;;;;;;14.18;9.75;;;12.60;99.90;;;;;;4991017;28;20085;-49
2023/10/24 00:47:05;;;;;;;12.85;10.75;;;12.60;99.90;;;;;;4992338;28;20156;-52
2023/10/24 00:49:31;;;;;;;12.45;10.30;;;12.60;99.90;;;;;;4992098;28;20030;-48
2023/10/24 00:51:58;;;;;;;17.15;8.20;;;12.60;99.90;;;;;;4992309;28;20030;-51
2023/10/24 00:54:26;;;;;;;14.15;8.65;;;12.50;99.90;;;;;;4991813;28;20034;-54
2023/10/24 00:56:51;;;;;;;18.92;12.32;;;12.60;99.90;;;;;;4992090;28;20031;-49
2023/10/24 00:59:20;;;;;;;19.27;11.80;;;12.50;99.90;;;;;;4991952;28;20023;-54
2023/10/24 01:01:46;;;;;;;20.10;11.27;;;12.50;99.90;;;;;;4992156;28;20563;-49
2023/10/24 01:04:12;;;;;;;9.95;7.57;;;12.50;99.90;;;;;;4990616;28;20117;-51
2023/10/24 01:06:38;;;;;;;9.88;6.75;;;12.60;99.90;;;;;;4992007;28;20030;-54
2023/10/24 01:09:03;;;;;;;6.75;6.05;;;12.60;99.90;;;;;;4992000;28;20093;-56
2023/10/24 01:11:29;;;;;;;12.80;6.90;;;12.70;99.90;;;;;;4990865;28;20037;-49
2023/10/24 01:13:56;;;;;;;9.20;7.22;;;12.60;99.90;;;;;;4991967;28;20025;-50
2023/10/24 01:16:22;;;;;;;9.23;7.13;;;12.70;99.90;;;;;;4991931;28;20025;-51
2023/10/24 01:18:47;;;;;;;11.65;6.90;;;12.70;99.90;;;;;;4990507;28;20398;-49
2023/10/24 01:21:13;;;;;;;11.50;6.57;;;12.70;99.90;;;;;;4992003;28;20034;-50
2023/10/24 01:23:40;;;;;;;13.80;7.47;;;12.70;99.90;;;;;;4991779;28;20077;-50
2023/10/24 01:26:06;;;;;;;8.50;6.55;;;12.60;99.90;;;;;;4991788;28;20026;-48
2023/10/24 01:28:32;;;;;;;11.27;6.97;;;12.60;99.90;;;;;;4992222;28;20371;-50
2023/10/24 01:30:57;;;;;;;10.63;6.95;;;12.60;99.90;;;;;;4992756;28;20110;-50
2023/10/24 01:33:23;;;;;;;14.15;6.70;;;12.50;99.90;;;;;;4992669;28;20088;-52
2023/10/24 01:35:48;;;;;;;10.90;7.32;;;12.50;99.90;;;;;;4996194;28;20022;-53
2023/10/24 01:38:14;;;;;;;10.20;6.45;;;12.50;99.90;;;;;;4996625;28;20029;-53
2023/10/24 01:40:39;;;;;;;12.82;6.78;;;12.60;99.90;;;;;;4996058;28;20105;-51
2023/10/24 01:43:05;;;;;;;12.32;7.28;;;12.60;99.90;;;;;;4994290;28;20018;-52
2023/10/24 01:45:30;;;;;;;8.18;6.40;;;12.50;99.90;;;;;;4995548;28;20533;-55
2023/10/24 01:47:56;;;;;;;12.60;6.43;;;12.80;99.90;;;;;;4995351;28;20045;-50
2023/10/24 01:50:22;;;;;;;10.77;6.68;;;12.50;99.90;;;;;;4994134;28;20034;-49
2023/10/24 01:52:47;;;;;;;10.95;7.35;;;12.50;99.90;;;;;;4995196;28;20080;-48
2023/10/24 01:55:13;;;;;;;10.15;6.47;;;12.60;99.90;;;;;;4995334;28;20036;-48
2023/10/24 01:57:38;;;;;;;11.23;6.65;;;12.50;99.90;;;;;;4995267;28;20062;-49
2023/10/24 02:00:05;;;;;;;9.30;7.22;;;12.60;99.90;;;;;;4995439;28;20109;-52
2023/10/24 02:02:31;;;;;;;11.70;6.65;;;12.50;99.90;;;;;;4995220;28;20019;-48
2023/10/24 02:04:56;;;;;;;10.15;6.85;;;12.50;99.90;;;;;;4995071;28;20037;-50
2023/10/24 02:07:23;;;;;;;14.05;6.63;;;12.50;99.90;;;;;;4995003;28;20073;-51
2023/10/24 02:09:49;;;;;;;11.48;7.22;;;12.50;99.90;;;;;;4995117;28;20022;-52
2023/10/24 02:12:15;;;;;;;8.27;6.95;;;12.50;99.90;;;;;;4994975;28;20034;-49
2023/10/24 02:14:40;;;;;;;11.73;6.60;;;12.50;99.90;;;;;;4994974;28;20683;-52
2023/10/24 02:17:06;;;;;;;10.13;6.88;;;12.50;99.90;;;;;;4994947;28;20023;-56
2023/10/24 02:19:32;;;;;;;11.82;7.53;;;12.50;99.90;;;;;;4994701;28;20022;-47
2023/10/24 02:21:57;;;;;;;11.13;7.80;;;12.50;99.90;;;;;;4993568;28;20402;-53
2023/10/24 02:24:23;;;;;;;9.18;6.97;;;12.50;99.90;;;;;;4994662;28;20033;-50
2023/10/24 02:26:48;;;;;;;9.02;6.97;;;12.50;99.90;;;;;;4994807;28;20026;-50
2023/10/24 02:29:14;;;;;;;16.95;8.35;;;12.60;99.90;;;;;;4993232;28;20019;-51
2023/10/24 02:31:40;;;;;;;12.52;6.80;;;12.60;99.90;;;;;;4994716;28;20039;-52
2023/10/24 02:34:05;;;;;;;9.55;6.80;;;12.60;99.90;;;;;;4994475;28;20045;-48
2023/10/24 02:36:31;;;;;;;14.95;7.47;;;12.60;99.90;;;;;;4994478;28;20390;-48
2023/10/24 02:38:56;;;;;;;11.73;6.45;;;12.60;99.90;;;;;;4994408;28;20101;-50
2023/10/24 02:41:22;;;;;;;13.43;6.70;;;12.60;99.90;;;;;;4994588;28;20026;-48
2023/10/24 02:43:48;;;;;;;16.02;7.22;;;12.60;99.90;;;;;;4994379;28;20027;-48
2023/10/24 02:46:13;;;;;;;9.43;6.70;;;12.50;99.90;;;;;;4994439;28;20041;-48
2023/10/24 02:48:39;;;;;;;8.02;6.50;;;12.60;99.90;;;;;;4992879;28;20034;-52
2023/10/24 02:51:04;;;;;;;11.38;6.53;;;12.60;99.90;;;;;;4993166;28;20545;-50
2023/10/24 02:53:30;;;;;;;15.43;7.10;;;12.60;99.90;;;;;;4994117;28;20046;-48
2023/10/24 02:56:01;;;;;;;13.68;7.45;;;12.60;99.90;;;;;;4994162;28;20417;-49
2023/10/24 02:58:26;;;;;;;10.95;7.07;;;12.60;99.90;;;;;;4994103;28;20018;-48
2023/10/24 03:00:52;;;;;;;13.38;6.43;;;12.60;99.90;;;;;;4994213;28;20173;-50
2023/10/24 03:03:17;;;;;;;6.82;5.97;;;12.60;99.90;;;;;;4993916;28;20018;-49
2023/10/24 03:05:43;;;;;;;9.82;6.28;;;12.60;99.90;;;;;;4994099;28;20033;-48
2023/10/24 03:08:08;;;;;;;7.88;6.72;;;12.60;99.90;;;;;;4994096;28;20030;-49
2023/10/24 03:10:41;;;;;;;9.80;7.28;;;12.60;99.90;;;;;;4994142;28;20030;-51
2023/10/24 03:13:06;;;;;;;12.52;6.18;;;12.60;99.90;;;;;;4993937;28;20421;-52
2023/10/24 03:15:33;;;;;;;12.15;6.72;;;12.60;99.90;;;;;;4993827;28;20029;-55
2023/10/24 03:17:59;;;;;;;7.95;7.15;;;12.60;99.90;;;;;;4993547;28;20032;-49
2023/10/24 03:20:26;;;;;;;10.90;6.78;;;12.60;99.90;;;;;;4992563;28;20121;-49
2023/10/24 03:22:52;;;;;;;12.98;7.15;;;12.60;99.90;;;;;;4993709;28;20018;-49
2023/10/24 03:25:17;;;;;;;13.15;7.03;;;12.60;99.90;;;;;;4993858;28;20478;-48
2023/10/24 03:27:43;;;;;;;12.77;6.85;;;12.60;99.90;;;;;;4992429;28;20100;-54
2023/10/24 03:30:08;;;;;;;9.93;7.55;;;12.60;99.90;;;;;;4992557;28;20019;-51
2023/10/24 03:32:34;;;;;;;10.68;6.75;;;12.60;99.90;;;;;;4993407;28;20034;-49
2023/10/24 03:34:59;;;;;;;8.00;6.72;;;12.60;99.90;;;;;;4991830;28;20022;-49
2023/10/24 03:37:25;;;;;;;13.32;8.15;;;12.70;99.90;;;;;;4992133;28;20474;-51
2023/10/24 03:39:50;;;;;;;15.48;9.25;;;12.70;99.90;;;;;;4993637;28;20022;-53
2023/10/24 03:42:16;;;;;;;9.32;7.05;;;12.70;99.90;;;;;;4993220;28;20030;-52
2023/10/24 03:44:42;;;;;;;9.43;7.40;;;12.70;99.90;;;;;;4993433;28;20026;-52
2023/10/24 03:47:07;;;;;;;10.55;7.97;;;12.70;99.90;;;;;;4993258;28;20066;-52
2023/10/24 03:49:33;;;;;;;12.63;7.95;;;12.60;99.90;;;;;;4993222;28;20026;-53
2023/10/24 03:51:59;;;;;;;8.43;7.20;;;12.60;99.90;;;;;;4993239;28;20030;-52
2023/10/24 03:54:25;;;;;;;11.43;8.70;;;12.70;99.90;;;;;;4993507;28;20465;-50
2023/10/24 03:56:50;;;;;;;12.25;8.18;;;12.70;99.90;;;;;;4992693;28;20058;-57
2023/10/24 03:59:16;;;;;;;13.02;8.50;;;12.70;99.90;;;;;;4991654;28;20041;-50
2023/10/24 04:01:41;;;;;;;14.60;8.57;;;12.60;99.90;;;;;;4993071;28;20097;-52
2023/10/24 04:04:07;;;;;;;13.40;8.60;;;12.60;99.90;;;;;;4993213;28;20033;-49
2023/10/24 04:06:35;;;;;;;16.58;8.18;;;12.50;99.90;;;;;;4993011;28;20113;-53
2023/10/24 04:09:05;;;;;;;16.42;9.43;;;12.50;99.90;;;;;;4992945;28;20030;-51
2023/10/24 04:11:32;;;;;;;11.93;9.27;;;12.50;99.90;;;;;;4992934;28;20022;-54
2023/10/24 04:13:58;;;;;;;14.48;8.57;;;12.60;99.90;;;;;;4992722;28;20046;-53
2023/10/24 04:16:24;;;;;;;11.32;8.52;;;12.60;99.90;;;;;;4992827;28;20500;-51
2023/10/24 04:18:50;;;;;;;11.35;9.75;;;12.60;99.90;;;;;;4992602;28;20057;-53
2023/10/24 04:21:16;;;;;;;16.20;10.10;;;12.50;99.90;;;;;;4992658;28;20029;-49
2023/10/24 04:23:42;;;;;;;13.23;9.40;;;12.50;99.90;;;;;;4992485;28;20045;-49
2023/10/24 04:26:09;;;;;;;13.45;9.00;;;12.50;99.90;;;;;;4992516;28;20540;-51
2023/10/24 04:28:34;;;;;;;17.80;9.90;;;12.50;99.90;;;;;;4992339;28;20081;-52
2023/10/24 04:31:00;;;;;;;13.02;9.25;;;12.50;99.90;;;;;;4992528;28;20030;-52
2023/10/24 04:33:25;;;;;;;12.32;9.68;;;12.50;99.90;;;;;;4991095;28;20029;-53
2023/10/24 04:35:51;;;;;;;17.35;10.18;;;12.50;99.90;;;;;;4992030;28;20034;-51
2023/10/24 04:38:17;;;;;;;15.38;10.55;;;12.50;99.90;;;;;;4992209;28;20054;-55
2023/10/24 04:40:43;;;;;;;12.32;9.65;;;12.50;99.90;;;;;;4992461;28;20033;-54
2023/10/24 04:43:09;;;;;;;14.23;11.05;;;12.50;99.90;;;;;;4992290;28;20066;-56
2023/10/24 04:45:35;;;;;;;20.25;10.68;;;12.50;99.90;;;;;;4992282;28;20022;-50
2023/10/24 04:48:02;;;;;;;11.48;10.32;;;12.50;99.90;;;;;;4992108;28;20061;-51
2023/10/24 04:50:28;;;;;;;16.75;11.38;;;12.50;99.90;;;;;;4992249;28;20038;-53
2023/10/24 04:52:54;;;;;;;12.85;10.80;;;12.50;99.90;;;;;;4991959;28;20044;-53
2023/10/24 04:55:20;;;;;;;11.73;9.35;;;12.50;99.90;;;;;;4992090;28;20490;-53
2023/10/24 04:57:46;;;;;;;17.02;9.85;;;12.50;99.90;;;;;;4991843;28;20393;-53
2023/10/24 05:00:12;;;;;;;13.88;9.73;;;12.50;99.90;;;;;;4992036;28;20019;-52
2023/10/24 05:02:42;;;;;;;14.13;9.70;;;12.50;99.90;;;;;;4992001;28;20029;-55
2023/10/24 05:05:08;;;;;;;13.07;10.20;;;12.40;99.90;;;;;;4991919;28;20069;-51
2023/10/24 05:07:33;;;;;;;13.43;10.07;;;12.40;99.90;;;;;;4990611;28;20030;-51
2023/10/24 05:09:59;;;;;;;17.83;10.70;;;12.40;99.90;;;;;;4991245;28;20371;-53
2023/10/24 05:12:24;;;;;;;17.42;10.32;;;12.40;99.90;;;;;;4990648;28;20030;-55
2023/10/24 05:14:50;;;;;;;11.25;9.50;;;12.40;99.90;;;;;;4991664;28;20081;-49
2023/10/24 05:17:16;;;;;;;14.82;10.57;;;12.40;99.90;;;;;;4991829;28;20026;-51
2023/10/24 05:19:41;;;;;;;16.48;11.73;;;12.40;99.90;;;;;;4992004;28;20026;-52
2023/10/24 05:22:08;;;;;;;14.05;10.48;;;12.40;99.90;;;;;;4991843;28;20026;-51
2023/10/24 05:24:34;;;;;;;13.13;11.10;;;12.40;99.90;;;;;;4991913;28;20049;-52
2023/10/24 05:26:59;;;;;;;15.10;10.35;;;12.50;99.90;;;;;;4990682;28;20060;-51
2023/10/24 05:29:25;;;;;;;15.40;10.15;;;12.40;99.90;;;;;;4991632;28;20030;-54
2023/10/24 05:31:50;;;;;;;15.75;11.15;;;12.50;99.90;;;;;;4991908;28;20033;-49
2023/10/24 05:34:16;;;;;;;18.00;10.60;;;12.40;99.90;;;;;;4991367;28;20022;-48
2023/10/24 05:36:41;;;;;;;16.75;10.50;;;12.40;99.90;;;;;;4991660;28;20030;-48
2023/10/24 05:39:07;;;;;;;16.90;10.23;;;12.40;99.90;;;;;;4991580;28;20026;-53
2023/10/24 05:41:32;;;;;;;23.88;10.70;;;12.40;99.90;;;;;;4991766;28;20022;-51
2023/10/24 05:43:58;;;;;;;15.98;10.32;;;12.50;99.90;;;;;;4991659;28;20392;-54
2023/10/24 05:46:24;;;;;;;16.10;10.88;;;12.40;99.90;;;;;;4991630;28;20429;-52
2023/10/24 05:48:49;;;;;;;19.52;10.95;;;12.40;99.90;;;;;;4991689;28;20030;-49
2023/10/24 05:51:22;;;;;;;16.90;10.80;;;12.40;99.90;;;;;;4992109;28;20026;-49
2023/10/24 05:53:49;;;;;;;18.35;10.65;;;12.40;99.90;;;;;;4991502;28;20120;-50
2023/10/24 05:56:15;;;;;;;22.23;11.55;;;12.40;99.90;;;;;;4991678;28;20022;-50
2023/10/24 05:58:41;;;;;;;20.30;11.82;;;12.40;99.90;;;;;;4991330;28;20470;-52
2023/10/24 06:01:07;;;;;;;16.40;11.05;;;12.40;99.90;;;;;;4991807;28;20379;-50
2023/10/24 06:03:33;;;;;;;13.80;10.27;;;12.30;99.90;;;;;;4991541;28;20077;-49
2023/10/24 06:05:58;;;;;;;15.43;11.80;;;12.40;99.90;;;;;;4991557;28;20034;-49
2023/10/24 06:08:24;;;;;;;19.20;11.13;;;12.40;99.90;;;;;;4991418;28;20445;-54
2023/10/24 06:10:56;;;;;;;17.65;13.20;;;12.40;99.90;;;;;;4991689;28;20050;-49
2023/10/24 06:13:22;;;;;;;15.23;12.30;;;12.40;99.90;;;;;;4991192;28;20054;-49
2023/10/24 06:15:47;;;;;;;18.42;11.75;;;12.40;99.90;;;;;;4991575;28;20074;-51
2023/10/24 06:18:13;;;;;;;16.60;13.95;;;12.40;99.90;;;;;;4991485;28;20035;-50
2023/10/24 06:20:38;;;;;;;16.25;12.93;;;12.40;99.90;;;;;;4993213;28;20026;-52
2023/10/24 06:23:05;;;;;;;19.25;14.30;;;12.50;99.90;;;;;;4994807;28;20026;-52
2023/10/24 06:25:37;;;;;;;18.58;13.38;;;12.50;99.90;;;;;;4994835;28;20022;-52
2023/10/24 06:28:02;;;;;;;16.02;11.32;;;12.50;99.90;;;;;;4994601;28;20513;-50
2023/10/24 06:30:28;;;;;;;17.33;11.15;;;12.50;99.90;;;;;;4994663;28;20026;-52
2023/10/24 06:32:53;;;;;;;13.95;12.15;;;12.50;99.90;;;;;;4993304;28;20034;-54
2023/10/24 06:35:19;;;;;;;16.15;11.35;;;12.50;99.90;;;;;;4994163;28;20034;-49
2023/10/24 06:37:45;;;;;;;14.50;10.98;;;12.50;99.90;;;;;;4994315;28;20049;-52
2023/10/24 06:40:11;;;;;;;19.70;10.68;;;12.40;99.90;;;;;;4994902;28;20014;-55
2023/10/24 06:42:36;;;;;;;17.52;10.80;;;12.40;99.90;;;;;;4993126;28;20034;-50
2023/10/24 06:45:02;;;;;;;16.75;11.60;;;12.40;99.90;;;;;;4993182;28;20037;-54
2023/10/24 06:47:27;;;;;;;18.00;11.10;;;12.40;99.90;;;;;;4994267;28;20474;-56
2023/10/24 06:49:53;;;;;;;17.05;10.88;;;12.40;99.90;;;;;;4994403;28;20113;-49
2023/10/24 06:52:18;;;;;;;14.55;10.88;;;12.40;99.90;;;;;;4994077;28;20027;-52
2023/10/24 06:54:44;;;;;;;17.92;10.93;;;12.40;99.90;;;;;;4994193;28;20038;-52
2023/10/24 06:57:09;;;;;;;13.50;11.23;;;12.40;99.90;;;;;;4994126;28;20030;-54
2023/10/24 06:59:35;;;;;;;17.13;10.48;;;12.40;99.90;;;;;;4994165;28;20129;-49
2023/10/24 07:02:00;;;;;;;18.08;9.95;;;12.40;99.90;;;;;;4994192;28;20073;-49
2023/10/24 07:04:26;;;;;;;14.90;10.32;;;12.40;99.90;;;;;;4994074;28;20569;-47
2023/10/24 07:06:51;;;;;;;16.55;10.50;;;12.40;99.90;;;;;;4994199;28;20054;-48
2023/10/24 07:09:17;;;;;;;14.18;10.77;;;12.50;99.90;;;;;;4993785;28;20109;-48
2023/10/24 07:11:42;;;;;;;16.38;11.30;;;12.50;99.90;;;;;;4994111;28;20050;-50
2023/10/24 07:14:08;;;;;;;22.73;11.88;;;12.50;99.90;;;;;;4993892;28;20034;-48
2023/10/24 07:16:34;;;;;;;13.48;10.60;;;12.50;99.90;;;;;;4994200;28;20516;-48
2023/10/24 07:18:59;;;;;;;14.48;10.73;;;12.50;99.90;;;;;;4993694;28;20483;-51
2023/10/24 07:21:25;;;;;;;16.92;10.50;;;12.50;99.90;;;;;;4993856;28;20027;-52
2023/10/24 07:23:51;;;;;;;15.05;10.88;;;12.50;99.90;;;;;;4993766;28;20069;-48
2023/10/24 07:26:16;;;;;;;15.95;11.07;;;12.50;99.90;;;;;;4993857;28;20026;-49
2023/10/24 07:28:42;;;;;;;15.45;10.30;;;12.50;99.90;;;;;;4992229;28;20402;-48
2023/10/24 07:31:07;;;;;;;23.63;12.35;;;12.60;99.90;;;;;;4993412;28;20038;-51
2023/10/24 07:33:33;;;;;;;17.95;10.43;;;12.50;99.90;;;;;;4991527;28;20038;-50
2023/10/24 07:36:08;;;;;;;16.35;10.65;;;12.50;99.90;;;;;;4992101;28;20054;-50
2023/10/24 07:38:34;;;;;;;16.98;11.20;;;12.50;99.90;;;;;;4993508;28;20161;-48
2023/10/24 07:41:00;;;;;;;14.55;10.63;;;12.50;99.90;;;;;;4993662;28;20033;-50
2023/10/24 07:43:26;;;;;;;16.23;11.07;;;12.50;99.90;;;;;;4992601;28;20538;-49
2023/10/24 07:45:55;;;;;;;16.50;11.50;;;12.60;99.90;;;;;;4992021;28;20029;-53
2023/10/24 07:48:21;;;;;;;14.88;11.30;;;12.60;99.90;;;;;;4993085;28;20026;-52
2023/10/24 07:50:54;;;;;;;16.42;11.77;;;12.60;99.90;;;;;;4993728;28;20401;-55
2023/10/24 07:53:21;;;;;;;15.35;11.00;;;12.70;99.90;;;;;;4993470;28;20291;-51
2023/10/24 07:55:46;;;;;;;15.70;10.95;;;12.70;99.90;;;;;;4992116;28;20033;-47
2023/10/24 07:58:13;;;;;;;18.98;10.65;;;12.70;99.90;;;;;;4992628;28;20030;-58
2023/10/24 08:00:39;;;;;;;16.55;11.68;;;12.70;99.90;;;;;;4993067;28;20030;-52
2023/10/24 08:03:04;;;;;;;18.38;10.73;;;12.70;99.90;;;;;;4993178;28;20022;-53
2023/10/24 08:05:30;;;;;;;13.88;10.73;;;12.70;99.90;;;;;;4993472;28;20053;-49
2023/10/24 08:07:55;;;;;;;15.35;11.30;;;12.70;99.90;;;;;;4993153;28;20040;-48
2023/10/24 08:10:21;;;;;;;19.40;11.63;;;12.80;99.90;;;;;;4992915;28;20461;-50
2023/10/24 08:12:46;;;;;;;15.35;12.10;;;12.80;99.90;;;;;;4993073;28;20034;-49
2023/10/24 08:15:12;;;;;;;19.77;12.40;;;12.70;99.90;;;;;;4992371;28;20063;-47
2023/10/24 08:17:37;;;;;;;15.60;12.35;;;12.70;99.90;;;;;;4992268;28;20019;-50
2023/10/24 08:20:04;;;;;;;16.95;12.60;;;12.60;99.90;;;;;;4991911;28;20034;-53
2023/10/24 08:22:30;;;;;;;18.40;13.30;;;12.70;99.90;;;;;;4992520;28;20023;-49
2023/10/24 08:24:55;;;;;;;13.18;11.88;;;12.70;99.90;;;;;;4993068;28;20045;-52
2023/10/24 08:27:21;;;;;;;15.82;12.27;;;12.70;99.90;;;;;;4991396;28;20158;-53
2023/10/24 08:29:46;;;;;;;18.23;13.20;;;12.70;99.90;;;;;;4992898;28;20085;-51
2023/10/24 08:32:12;;;;;;;17.17;11.50;;;12.60;99.90;;;;;;4991306;28;20390;-50
2023/10/24 08:34:38;;;;;;;14.45;12.23;;;12.60;99.90;;;;;;4992426;28;20379;-51
2023/10/24 08:37:04;;;;;;;18.63;11.98;;;12.60;99.90;;;;;;4993062;28;20077;-52
2023/10/24 08:39:29;;;;;;;16.73;12.35;;;12.60;99.90;;;;;;4992579;28;20550;-48
2023/10/24 08:41:59;;;;;;;19.38;13.02;;;12.70;99.90;;;;;;4991215;28;20034;-50
2023/10/24 08:44:29;;;;;;;18.60;12.07;;;12.70;99.90;;;;;;4992181;28;20089;-49
2023/10/24 08:46:54;;;;;;;15.80;12.00;;;12.70;99.90;;;;;;4991859;28;20029;-50
2023/10/24 08:49:20;;;;;;;13.02;11.60;;;12.70;99.90;;;;;;4990165;28;20030;-51
2023/10/24 08:51:47;;;;;;;15.57;11.73;;;12.70;99.90;;;;;;4990517;28;20513;-60
2023/10/24 08:54:13;;;;;;;18.73;13.60;;;12.70;99.90;;;;;;4991228;28;20560;-56
2023/10/24 08:56:39;;;;;;;15.20;12.65;;;12.70;99.90;;;;;;4988024;28;20014;-60
2023/10/24 08:59:07;;;;;;;16.25;13.23;;;12.70;99.90;;;;;;4985023;28;20494;-54
2023/10/24 09:01:35;;;;;;;21.27;13.65;;;12.70;99.90;;;;;;4980667;28;20084;-50
2023/10/24 09:04:02;;;;;;;95.88;63.95;;;12.70;99.90;;;;;;4990296;28;20041;-51
2023/10/24 09:06:28;;;;;;;76.10;42.53;;;12.70;99.90;;;;;;4988050;28;20152;-49
2023/10/24 09:08:53;;;;;;;23.80;14.65;;;12.80;99.90;;;;;;4991843;28;20030;-49
2023/10/24 09:11:19;;;;;;;19.85;12.85;;;12.80;99.90;;;;;;4990508;28;20098;-49
2023/10/24 09:13:44;;;;;;;23.58;13.48;;;12.80;99.90;;;;;;4992338;28;20036;-49
2023/10/24 09:16:11;;;;;;;21.00;13.68;;;12.80;99.90;;;;;;4990706;28;20045;-49
2023/10/24 09:18:37;;;;;;;15.02;12.93;;;12.90;99.90;;;;;;4991381;28;20026;-54
2023/10/24 09:21:06;;;;;;;17.20;13.30;;;12.90;99.90;;;;;;4991129;28;20517;-50
2023/10/24 09:23:33;;;;;;;17.05;13.35;;;12.90;99.90;;;;;;4991763;28;20029;-48
2023/10/24 09:26:06;;;;;;;18.17;13.05;;;12.90;99.90;;;;;;4991703;28;20033;-49
2023/10/24 09:28:33;;;;;;;18.88;13.32;;;12.90;99.90;;;;;;4989903;28;20390;-53
2023/10/24 09:30:59;;;;;;;18.80;14.43;;;12.90;99.90;;;;;;4991931;28;20026;-50
2023/10/24 09:33:26;;;;;;;18.27;13.88;;;12.90;99.90;;;;;;4990855;28;20113;-51
2023/10/24 09:35:52;;;;;;;22.60;14.15;;;12.90;99.90;;;;;;4990510;28;20034;-52
2023/10/24 09:38:19;;;;;;;22.45;14.27;;;12.90;99.90;;;;;;4991881;28;20029;-48
2023/10/24 09:40:45;;;;;;;21.25;14.48;;;12.90;99.90;;;;;;4990472;28;20058;-49
2023/10/24 09:43:22;;;;;;;25.33;15.35;;;12.90;99.90;;;;;;4990949;28;20062;-47
2023/10/24 09:45:50;;;;;;;24.48;15.05;;;12.90;99.90;;;;;;4989730;28;20124;-50
2023/10/24 09:48:19;;;;;;;21.88;14.30;;;12.90;99.90;;;;;;4991361;28;20097;-50
2023/10/24 09:50:46;;;;;;;22.33;14.52;;;13.00;99.90;;;;;;4991652;28;20541;-49
2023/10/24 09:53:13;;;;;;;23.25;14.90;;;13.00;99.90;;;;;;5006295;23;20042;-48
2023/10/24 09:55:48;;;;;;;21.70;15.75;;;13.00;99.90;;;;;;5012767;28;20556;-53
2023/10/24 09:58:16;;;;;;;18.35;13.70;;;13.00;99.90;;;;;;5014735;28;20021;-50
2023/10/24 10:00:42;;;;;;;22.10;13.55;;;13.00;99.90;;;;;;5013829;28;20026;-50
2023/10/24 10:03:09;;;;;;;19.25;14.43;;;13.00;99.90;;;;;;5010967;28;20104;-52
2023/10/24 10:05:38;;;;;;;20.15;14.00;;;13.00;99.90;;;;;;4987453;28;20022;-54
2023/10/24 10:08:06;;;;;;;16.10;13.75;;;13.00;99.90;;;;;;4981918;28;20410;-51
2023/10/24 10:10:34;;;;;;;19.45;15.63;;;13.10;99.90;;;;;;4983610;28;20057;-56
2023/10/24 10:13:03;;;;;;;19.15;14.95;;;13.10;99.90;;;;;;4979073;28;20057;-56
2023/10/24 10:16:00;;;;;;;17.98;15.30;;;13.10;99.90;;;;;;4991988;28;20030;-50
2023/10/24 10:18:32;;;;;;;20.58;15.65;;;13.10;99.90;;;;;;4975576;28;20023;-50
2023/10/24 10:21:22;;;;;;;23.60;17.55;;;13.00;99.90;;;;;;4974606;28;20029;-52
2023/10/24 10:24:12;;;;;;;23.65;18.52;;;13.10;99.90;;;;;;4983270;28;20423;-52
2023/10/24 10:27:07;;;;;;;23.10;17.73;;;13.10;99.90;;;;;;4982914;28;20445;-51
2023/10/24 10:29:51;;;;;;;27.20;20.60;;;13.10;99.90;;;;;;4994236;28;20506;-56
2023/10/24 10:32:25;;;;;;;37.60;26.02;;;13.10;99.90;;;;;;4992189;28;20042;-48
2023/10/24 10:34:51;;;;;;;29.83;21.80;;;13.10;99.90;;;;;;4995437;28;20054;-52
2023/10/24 10:37:17;;;;;;;20.77;18.30;;;13.10;99.90;;;;;;4985782;28;20023;-52
2023/10/24 10:40:28;;;;;;;26.67;20.20;;;13.10;99.90;;;;;;4975941;28;20383;-51
2023/10/24 10:42:54;;;;;;;20.63;16.55;;;13.10;99.90;;;;;;4982420;28;20550;-50
2023/10/24 10:45:25;;;;;;;20.38;16.40;;;13.10;99.90;;;;;;4985314;28;20038;-51
2023/10/24 10:47:52;;;;;;;19.35;15.77;;;13.10;99.90;;;;;;4980776;28;20518;-53
2023/10/24 10:50:29;;;;;;;22.58;16.33;;;13.10;99.90;;;;;;4976328;28;20031;-53
2023/10/24 10:53:14;;;;;;;18.52;14.90;;;13.10;99.90;;;;;;4993502;28;20031;-49
2023/10/24 10:56:04;;;;;;;20.13;14.87;;;13.20;99.90;;;;;;4995102;28;20035;-54
2023/10/24 10:58:48;;;;;;;20.42;14.85;;;13.20;99.90;;;;;;4989391;28;20613;-50
2023/10/24 11:01:19;;;;;;;19.10;14.00;;;13.20;99.90;;;;;;4986319;28;20037;-49
2023/10/24 11:03:46;;;;;;;16.27;13.50;;;13.20;99.90;;;;;;4977865;28;20359;-47
2023/10/24 11:06:16;;;;;;;17.33;13.52;;;13.30;99.90;;;;;;4978241;28;20030;-50
2023/10/24 11:09:06;;;;;;;23.95;14.98;;;13.30;99.90;;;;;;4993800;28;20037;-52
2023/10/24 11:11:31;;;;;;;17.83;14.30;;;13.30;99.90;;;;;;4994390;28;20137;-50
2023/10/24 11:14:14;;;;;;;15.85;13.07;;;13.30;99.90;;;;;;4994115;28;20054;-50
2023/10/24 11:16:42;;;;;;;17.63;13.65;;;13.30;99.90;;;;;;4993058;28;20492;-50
2023/10/24 11:19:16;;;;;;;16.77;12.70;;;13.30;99.90;;;;;;4992226;28;20026;-52
2023/10/24 11:21:41;;;;;;;18.40;13.73;;;13.30;99.90;;;;;;4984496;28;20019;-51
2023/10/24 11:24:07;;;;;;;17.83;13.40;;;13.30;99.90;;;;;;4973574;28;20030;-53
2023/10/24 11:26:33;;;;;;;19.85;13.88;;;13.40;99.90;;;;;;4983991;28;20073;-49
2023/10/24 11:28:59;;;;;;;15.65;13.63;;;13.40;99.90;;;;;;4986987;28;20042;-49
2023/10/24 11:31:26;;;;;;;21.08;13.18;;;13.40;99.90;;;;;;4981063;28;20046;-53
2023/10/24 11:33:52;;;;;;;21.08;12.02;;;13.40;99.90;;;;;;4986698;28;20117;-54
2023/10/24 11:36:18;;;;;;;17.95;11.75;;;13.40;99.90;;;;;;4974486;28;20558;-51
2023/10/24 11:38:44;;;;;;;17.55;11.90;;;13.40;99.90;;;;;;4980970;28;20029;-50
2023/10/24 11:41:10;;;;;;;15.23;11.90;;;13.40;99.90;;;;;;4993814;28;20022;-49
2023/10/24 11:43:35;;;;;;;15.68;12.15;;;13.50;99.90;;;;;;4993676;28;20073;-54
2023/10/24 11:46:01;;;;;;;12.35;10.23;;;13.50;99.90;;;;;;4993604;28;20038;-50
2023/10/24 11:48:26;;;;;;;14.20;11.63;;;13.50;99.90;;;;;;4992419;28;20030;-49
2023/10/24 11:50:52;;;;;;;13.40;10.40;;;13.50;99.90;;;;;;4986780;28;20031;-54
2023/10/24 11:53:22;;;;;;;14.00;11.05;;;13.50;99.90;;;;;;4974481;28;20445;-49
2023/10/24 11:55:49;;;;;;;12.63;9.85;;;13.50;99.90;;;;;;4973929;28;20027;-51
2023/10/24 11:58:15;;;;;;;14.18;11.57;;;13.50;99.90;;;;;;4974416;28;20399;-49
2023/10/24 12:00:43;;;;;;;18.20;10.00;;;13.50;99.90;;;;;;4975490;28;20022;-51
2023/10/24 12:03:09;;;;;;;13.00;10.65;;;13.50;99.90;;;;;;4982049;28;20023;-49
2023/10/24 12:05:35;;;;;;;11.73;9.93;;;13.40;99.90;;;;;;4993646;28;20037;-54
2023/10/24 12:08:04;;;;;;;16.65;10.95;;;13.50;99.90;;;;;;4994068;28;20030;-54
2023/10/24 12:10:32;;;;;;;17.60;13.57;;;13.50;99.90;;;;;;4998466;28;20502;-51
2023/10/24 12:13:00;;;;;;;38.47;24.70;;;13.50;99.90;;;;;;4994543;28;20058;-54
2023/10/24 12:15:26;;;;;;;11.43;10.20;;;13.40;99.90;;;;;;4994939;28;20532;-54
2023/10/24 12:17:53;;;;;;;13.85;9.27;;;13.50;99.90;;;;;;4994592;28;20036;-52
2023/10/24 12:20:20;;;;;;;10.18;9.05;;;13.50;99.90;;;;;;4992580;28;20026;-52
2023/10/24 12:22:47;;;;;;;11.63;9.02;;;13.50;99.90;;;;;;4992294;28;20022;-51
2023/10/24 12:25:17;;;;;;;12.60;8.77;;;13.50;99.90;;;;;;4993712;28;20185;-54
2023/10/24 12:27:45;;;;;;;11.57;8.20;;;13.50;99.90;;;;;;4994646;28;20026;-50
2023/10/24 12:30:11;;;;;;;13.82;9.80;;;13.60;99.90;;;;;;4993622;28;20027;-50